Time;durP1;ratioP1;P1;durP2;ratioP2;P2;SDS_P1;SDS_P2;PMS_P1;PMS_P2;Temp;Humidity;BMP_temperature;BMP_pressure;BME280_temperature;BME280_humidity;BME280_pressure;Samples;Min_cycle;Max_cycle;Signal;HPM_P1;HPM_P2
2022/09/21 00:02:23;;;;;;;;;;;19.20;86.10;;;;;;5092888;28;20310;-55
2022/09/21 00:04:49;;;;;;;;;;;19.20;86.10;;;;;;5092960;28;19923;-51
2022/09/21 00:07:15;;;;;;;;;;;19.20;86.20;;;;;;5092624;28;19911;-51
2022/09/21 00:09:41;;;;;;;;;;;19.20;86.70;;;;;;5092705;28;19904;-52
2022/09/21 00:12:06;;;;;;;;;;;19.20;86.10;;;;;;5067992;28;20186;-51
2022/09/21 00:14:31;;;;;;;;;;;19.20;86.10;;;;;;5093185;28;20287;-50
2022/09/21 00:16:57;;;;;;;;;;;19.20;86.70;;;;;;5092301;28;19916;-56
2022/09/21 00:19:22;;;;;;;;;;;19.20;86.20;;;;;;5074664;28;19915;-48
2022/09/21 00:21:48;;;;;;;;;;;19.20;86.10;;;;;;5092623;28;19915;-50
2022/09/21 00:24:13;;;;;;;;;;;19.20;86.20;;;;;;5074645;28;20366;-53
2022/09/21 00:26:39;;;;;;;;;;;19.20;86.00;;;;;;5092318;28;19908;-54
2022/09/21 00:29:05;;;;;;;;;;;19.20;86.20;;;;;;5092779;28;19933;-51
2022/09/21 00:31:31;;;;;;;;;;;19.20;86.10;;;;;;5092654;28;19995;-51
2022/09/21 00:33:58;;;;;;;;;;;19.20;86.00;;;;;;5092348;28;19998;-51
2022/09/21 00:36:24;;;;;;;;;;;19.30;86.10;;;;;;5094043;28;19912;-52
2022/09/21 00:38:51;;;;;;;;;;;19.20;86.10;;;;;;5086067;28;19916;-49
2022/09/21 00:41:17;;;;;;;;;;;19.20;86.10;;;;;;5092558;28;19962;-50
2022/09/21 00:43:45;;;;;;;;;;;19.20;86.10;;;;;;5092212;28;19912;-52
2022/09/21 00:46:28;;;;;;;;;;;19.20;86.10;;;;;;5092475;28;19966;-49
2022/09/21 00:48:54;;;;;;;;;;;19.20;86.20;;;;;;5087143;28;19912;-50
2022/09/21 00:51:20;;;;;;;;;;;19.20;86.10;;;;;;5092131;28;19908;-51
2022/09/21 00:53:48;;;;;;;;;;;19.20;86.00;;;;;;5092270;28;19909;-51
2022/09/21 00:56:14;;;;;;;;;;;19.20;86.00;;;;;;5090071;28;19916;-50
2022/09/21 00:58:43;;;;;;;;;;;19.20;86.00;;;;;;5093015;28;19918;-54
2022/09/21 01:01:10;;;;;;;;;;;19.30;86.00;;;;;;5091429;28;20203;-54
2022/09/21 01:03:36;;;;;;;;;;;19.30;85.90;;;;;;5091479;28;19973;-53
2022/09/21 01:06:01;;;;;;;;;;;19.30;86.10;;;;;;5092587;28;20266;-53
2022/09/21 01:08:27;;;;;;;;;;;19.30;86.00;;;;;;5095510;28;19955;-54
2022/09/21 01:11:19;;;;;;;;;;;19.20;86.00;;;;;;5095795;28;19915;-53
2022/09/21 01:14:03;;;;;;;;;;;19.20;86.00;;;;;;5063144;28;19908;-53
2022/09/21 01:16:43;;;;;;;;;;;19.20;86.00;;;;;;5097324;28;19923;-54
2022/09/21 01:19:14;;;;;;;;;;;19.20;86.00;;;;;;5097854;28;20262;-52
2022/09/21 01:21:51;;;;;;;;;;;19.20;86.10;;;;;;5097348;28;19919;-55
2022/09/21 01:24:17;;;;;;;;;;;19.20;85.90;;;;;;5097033;28;20231;-50
2022/09/21 01:26:53;;;;;;;;;;;19.20;85.90;;;;;;5097296;28;19916;-54
2022/09/21 01:29:21;;;;;;;;;;;19.20;86.00;;;;;;5096971;28;19908;-50
2022/09/21 01:31:47;;;;;;;;;;;19.20;86.00;;;;;;5097113;28;20372;-54
2022/09/21 01:34:18;;;;;;;;;;;19.20;86.00;;;;;;5097156;28;19921;-51
2022/09/21 01:36:46;;;;;;;;;;;19.20;86.00;;;;;;5109129;28;19911;-53
2022/09/21 01:39:12;;;;;;;;;;;19.20;86.00;;;;;;5117382;28;19907;-49
2022/09/21 01:41:39;;;;;;;;;;;19.20;86.10;;;;;;5116994;28;19957;-54
2022/09/21 01:44:18;;;;;;;;;;;19.10;86.00;;;;;;5099011;28;19915;-50
2022/09/21 01:46:45;;;;;;;;;;;19.20;86.10;;;;;;5117182;28;19914;-50
2022/09/21 01:49:13;;;;;;;;;;;19.20;86.10;;;;;;5116873;28;20273;-53
2022/09/21 01:51:42;;;;;;;;;;;19.10;86.00;;;;;;5116839;28;19907;-53
2022/09/21 01:54:19;;;;;;;;;;;19.10;86.10;;;;;;5117131;28;19912;-53
2022/09/21 01:56:48;;;;;;;;;;;19.10;86.10;;;;;;5117087;28;19922;-51
2022/09/21 01:59:41;;;;;;;;;;;19.10;86.20;;;;;;5117294;28;19915;-52
2022/09/21 02:02:15;;;;;;;;;;;19.10;86.20;;;;;;5086095;28;20003;-53
2022/09/21 02:04:40;;;;;;;;;;;19.00;86.20;;;;;;5116443;28;19969;-54
2022/09/21 02:07:06;;;;;;;;;;;19.00;86.20;;;;;;5116466;28;19963;-52
2022/09/21 02:09:34;;;;;;;;;;;19.00;86.20;;;;;;5115982;28;20300;-51
2022/09/21 02:12:01;;;;;;;;;;;19.00;86.30;;;;;;5116461;28;19915;-51
2022/09/21 02:14:27;;;;;;;;;;;19.00;86.30;;;;;;5116635;28;19915;-52
2022/09/21 02:17:08;;;;;;;;;;;19.00;86.30;;;;;;5116197;28;19911;-48
2022/09/21 02:20:01;;;;;;;;;;;19.00;86.30;;;;;;5116249;28;19908;-52
2022/09/21 02:22:36;;;;;;;;;;;19.00;86.30;;;;;;5116939;28;19977;-52
2022/09/21 02:25:07;;;;;;;;;;;19.00;86.40;;;;;;5116528;28;19915;-51
2022/09/21 02:27:53;;;;;;;;;;;18.90;86.40;;;;;;5116431;28;19911;-51
2022/09/21 02:30:18;;;;;;;;;;;19.00;86.50;;;;;;5115372;28;20350;-51
2022/09/21 02:33:04;;;;;;;;;;;18.90;86.40;;;;;;5116361;28;19922;-52
2022/09/21 02:35:47;;;;;;;;;;;18.90;86.50;;;;;;5114560;28;20373;-52
2022/09/21 02:38:31;;;;;;;;;;;18.80;86.60;;;;;;5095664;28;19912;-54
2022/09/21 02:41:06;;;;;;;;;;;18.80;86.80;;;;;;5077655;28;19912;-49
2022/09/21 02:43:36;;;;;;;;;;;18.80;86.80;;;;;;5095433;28;20305;-51
2022/09/21 02:46:09;;;;;;;;;;;18.80;86.90;;;;;;5095616;28;19961;-54
2022/09/21 02:48:42;;;;;;;;;;;18.80;86.90;;;;;;5096023;28;20003;-54
2022/09/21 02:51:10;;;;;;;;;;;18.80;87.00;;;;;;5095249;28;19912;-55
2022/09/21 02:53:37;;;;;;;;;;;18.70;87.00;;;;;;5077356;28;19908;-54
2022/09/21 02:56:06;;;;;;;;;;;18.70;87.00;;;;;;5077240;28;19938;-50
2022/09/21 02:58:35;;;;;;;;;;;18.70;87.10;;;;;;5095473;28;20279;-49
2022/09/21 03:01:00;;;;;;;;;;;18.60;87.10;;;;;;5077125;28;19908;-52
2022/09/21 03:03:26;;;;;;;;;;;18.60;87.20;;;;;;5095451;28;20430;-52
2022/09/21 03:05:53;;;;;;;;;;;18.60;87.20;;;;;;5095089;28;19912;-54
2022/09/21 03:08:19;;;;;;;;;;;18.60;87.20;;;;;;5077146;28;19908;-54
2022/09/21 03:10:45;;;;;;;;;;;18.60;87.30;;;;;;5095524;28;19908;-53
2022/09/21 03:13:11;;;;;;;;;;;18.60;87.30;;;;;;5095153;28;19908;-52
2022/09/21 03:15:37;;;;;;;;;;;18.60;87.30;;;;;;5076826;28;19920;-52
2022/09/21 03:18:04;;;;;;;;;;;18.60;87.30;;;;;;5094773;28;20388;-52
2022/09/21 03:20:31;;;;;;;;;;;18.60;87.40;;;;;;5094960;28;19915;-50
2022/09/21 03:22:57;;;;;;;;;;;18.50;87.40;;;;;;5095016;28;19954;-52
2022/09/21 03:25:22;;;;;;;;;;;18.50;87.40;;;;;;5076750;28;19912;-51
2022/09/21 03:27:52;;;;;;;;;;;18.50;87.40;;;;;;5094361;28;19951;-52
2022/09/21 03:30:21;;;;;;;;;;;18.50;87.40;;;;;;5094087;28;19938;-51
2022/09/21 03:32:53;;;;;;;;;;;18.50;87.50;;;;;;5094376;28;19908;-51
2022/09/21 03:35:20;;;;;;;;;;;18.50;87.50;;;;;;5076582;28;19911;-53
2022/09/21 03:37:46;;;;;;;;;;;18.50;87.50;;;;;;5115045;28;19912;-51
2022/09/21 03:40:12;;;;;;;;;;;18.50;87.50;;;;;;5114791;28;19908;-50
2022/09/21 03:42:39;;;;;;;;;;;18.50;87.50;;;;;;5114937;28;19935;-50
2022/09/21 03:45:05;;;;;;;;;;;18.50;87.60;;;;;;5114548;28;19935;-52
2022/09/21 03:47:30;;;;;;;;;;;18.50;87.60;;;;;;5114503;28;20341;-51
2022/09/21 03:49:56;;;;;;;;;;;18.40;87.60;;;;;;5114851;28;20362;-54
2022/09/21 03:52:21;;;;;;;;;;;18.40;87.60;;;;;;5114564;28;19991;-53
2022/09/21 03:54:47;;;;;;;;;;;18.40;87.60;;;;;;5096679;28;19916;-50
2022/09/21 03:57:12;;;;;;;;;;;18.40;87.70;;;;;;5115164;28;19919;-55
2022/09/21 03:59:38;;;;;;;;;;;18.40;87.70;;;;;;5096629;28;19915;-51
2022/09/21 04:02:03;;;;;;;;;;;18.40;87.80;;;;;;5114623;28;19908;-53
2022/09/21 04:04:29;;;;;;;;;;;18.40;87.80;;;;;;5114229;28;19920;-49
2022/09/21 04:06:54;;;;;;;;;;;18.40;87.70;;;;;;5114525;28;20300;-53
2022/09/21 04:09:20;;;;;;;;;;;18.40;87.70;;;;;;5114542;28;19907;-51
2022/09/21 04:11:47;;;;;;;;;;;18.40;88.30;;;;;;5114472;28;19907;-49
2022/09/21 04:14:12;;;;;;;;;;;18.30;88.30;;;;;;5114050;28;19908;-53
2022/09/21 04:16:38;;;;;;;;;;;18.30;87.80;;;;;;5096133;28;20416;-51
2022/09/21 04:19:03;;;;;;;;;;;18.40;87.90;;;;;;5114157;28;19907;-51
2022/09/21 04:21:29;;;;;;;;;;;18.30;87.80;;;;;;5114057;28;19946;-53
2022/09/21 04:23:55;;;;;;;;;;;18.30;87.90;;;;;;5095690;28;19915;-51
2022/09/21 04:26:22;;;;;;;;;;;18.30;87.90;;;;;;5114114;28;19939;-51
2022/09/21 04:28:47;;;;;;;;;;;18.30;87.90;;;;;;5114178;28;20358;-49
2022/09/21 04:31:13;;;;;;;;;;;18.30;87.90;;;;;;5096058;28;19936;-55
2022/09/21 04:33:38;;;;;;;;;;;18.30;87.90;;;;;;5113878;28;20377;-51
2022/09/21 04:36:05;;;;;;;;;;;18.30;88.00;;;;;;5107755;28;19995;-49
2022/09/21 04:38:30;;;;;;;;;;;18.30;88.10;;;;;;5093829;28;19912;-49
2022/09/21 04:40:56;;;;;;;;;;;18.30;88.00;;;;;;5096479;28;19977;-52
2022/09/21 04:43:22;;;;;;;;;;;18.30;88.00;;;;;;5097960;28;19907;-50
2022/09/21 04:45:47;;;;;;;;;;;18.30;88.00;;;;;;5097491;28;20431;-53
2022/09/21 04:48:13;;;;;;;;;;;18.30;88.00;;;;;;5097481;28;19908;-54
2022/09/21 04:50:38;;;;;;;;;;;18.30;87.90;;;;;;5097992;28;19961;-52
2022/09/21 04:53:04;;;;;;;;;;;18.30;88.00;;;;;;5097453;28;19999;-52
2022/09/21 04:55:30;;;;;;;;;;;18.30;88.00;;;;;;5097183;28;19947;-50
2022/09/21 04:57:55;;;;;;;;;;;18.20;87.90;;;;;;5097624;28;19969;-49
2022/09/21 05:00:21;;;;;;;;;;;18.20;88.00;;;;;;5097316;28;19908;-51
2022/09/21 05:02:46;;;;;;;;;;;18.20;88.10;;;;;;5097628;28;20343;-52
2022/09/21 05:05:12;;;;;;;;;;;18.20;88.10;;;;;;5097590;28;19920;-49
2022/09/21 05:07:37;;;;;;;;;;;18.20;88.10;;;;;;5097637;28;20053;-51
2022/09/21 05:10:03;;;;;;;;;;;18.20;88.10;;;;;;5097066;28;19909;-52
2022/09/21 05:12:30;;;;;;;;;;;18.20;88.10;;;;;;5097401;28;19915;-52
2022/09/21 05:14:55;;;;;;;;;;;18.20;88.10;;;;;;5097478;28;19919;-49
2022/09/21 05:17:21;;;;;;;;;;;18.20;88.60;;;;;;5097098;28;19912;-49
2022/09/21 05:19:47;;;;;;;;;;;18.20;88.10;;;;;;5097239;28;20072;-52
2022/09/21 05:22:13;;;;;;;;;;;18.20;88.00;;;;;;5096872;28;19908;-49
2022/09/21 05:24:38;;;;;;;;;;;18.20;88.10;;;;;;5097090;28;19915;-50
2022/09/21 05:27:04;;;;;;;;;;;18.20;88.10;;;;;;5096634;28;19935;-50
2022/09/21 05:29:29;;;;;;;;;;;18.20;87.90;;;;;;5096641;28;20313;-51
2022/09/21 05:31:55;;;;;;;;;;;18.20;87.90;;;;;;5094399;28;19909;-51
2022/09/21 05:34:23;;;;;;;;;;;18.20;88.00;;;;;;5092907;28;19919;-51
2022/09/21 05:36:57;;;;;;;;;;;18.20;88.10;;;;;;5089172;28;19921;-49
2022/09/21 05:39:23;;;;;;;;;;;18.20;87.90;;;;;;5077854;28;19919;-50
2022/09/21 05:41:50;;;;;;;;;;;18.10;87.80;;;;;;5102299;28;19916;-50
2022/09/21 05:44:15;;;;;;;;;;;18.20;87.70;;;;;;5113319;28;20377;-50
2022/09/21 05:46:47;;;;;;;;;;;18.20;87.80;;;;;;5114358;28;19912;-50
2022/09/21 05:49:19;;;;;;;;;;;18.20;87.90;;;;;;5095228;28;20014;-52
2022/09/21 05:51:57;;;;;;;;;;;18.20;87.80;;;;;;5107400;28;19915;-47
2022/09/21 05:54:28;;;;;;;;;;;18.20;88.10;;;;;;5091132;28;19912;-55
2022/09/21 05:57:04;;;;;;;;;;;18.30;88.30;;;;;;5108381;28;19916;-47
2022/09/21 05:59:48;;;;;;;;;;;18.20;88.20;;;;;;5107630;28;20357;-48
2022/09/21 06:02:32;;;;;;;;;;;18.10;88.20;;;;;;5088883;28;19924;-47
2022/09/21 06:04:59;;;;;;;;;;;18.10;88.50;;;;;;5078634;28;19924;-52
2022/09/21 06:07:24;;;;;;;;;;;18.10;88.20;;;;;;5084217;28;20406;-59
2022/09/21 06:09:50;;;;;;;;;;;18.10;88.10;;;;;;5108424;28;19995;-50
2022/09/21 06:12:15;;;;;;;;;;;18.10;88.50;;;;;;5114849;28;20391;-57
2022/09/21 06:14:41;;;;;;;;;;;18.20;89.00;;;;;;5107219;28;20350;-54
2022/09/21 06:17:06;;;;;;;;;;;18.20;89.40;;;;;;5102493;28;19920;-51
2022/09/21 06:19:31;;;;;;;;;;;18.20;88.80;;;;;;5093860;28;20322;-53
2022/09/21 06:21:57;;;;;;;;;;;18.20;88.70;;;;;;5103449;28;19920;-52
2022/09/21 06:24:23;;;;;;;;;;;18.30;88.60;;;;;;5105862;28;19911;-52
2022/09/21 06:26:48;;;;;;;;;;;18.30;88.40;;;;;;5113454;28;19914;-50
2022/09/21 06:29:14;;;;;;;;;;;18.30;88.50;;;;;;5111550;28;19978;-49
2022/09/21 06:31:39;;;;;;;;;;;18.30;88.40;;;;;;5106923;28;19916;-49
2022/09/21 06:34:04;;;;;;;;;;;18.30;88.20;;;;;;5111322;28;19919;-53
2022/09/21 06:36:30;;;;;;;;;;;18.30;88.40;;;;;;5102701;28;20434;-54
2022/09/21 06:38:55;;;;;;;;;;;18.30;88.30;;;;;;5109120;28;19938;-53
2022/09/21 06:41:21;;;;;;;;;;;18.30;88.40;;;;;;5109564;28;19911;-49
2022/09/21 06:43:46;;;;;;;;;;;18.30;88.20;;;;;;5080166;28;19912;-52
2022/09/21 06:46:12;;;;;;;;;;;18.40;88.40;;;;;;5099146;28;20003;-51
2022/09/21 06:48:37;;;;;;;;;;;18.40;88.10;;;;;;5088612;28;19927;-52
2022/09/21 06:51:04;;;;;;;;;;;18.40;88.30;;;;;;5098204;28;19912;-50
2022/09/21 06:53:30;;;;;;;;;;;18.40;88.20;;;;;;5074956;28;19916;-52
2022/09/21 06:56:03;;;;;;;;;;;18.50;88.30;;;;;;5105421;28;19922;-54
2022/09/21 06:58:28;;;;;;;;;;;18.50;88.30;;;;;;5073860;28;20065;-53
2022/09/21 07:00:54;;;;;;;;;;;18.50;88.30;;;;;;5104522;28;20002;-53
2022/09/21 07:03:20;;;;;;;;;;;18.50;88.20;;;;;;5111379;28;20330;-51
2022/09/21 07:05:45;;;;;;;;;;;18.50;88.20;;;;;;5109764;28;19912;-54
2022/09/21 07:08:11;;;;;;;;;;;18.50;88.20;;;;;;5101075;28;19920;-59
2022/09/21 07:10:36;;;;;;;;;;;18.50;88.20;;;;;;5094966;28;19929;-50
2022/09/21 07:13:03;;;;;;;;;;;18.50;88.30;;;;;;5100805;28;19918;-53
2022/09/21 07:15:29;;;;;;;;;;;18.50;88.30;;;;;;5094878;28;19931;-51
2022/09/21 07:17:54;;;;;;;;;;;18.60;88.30;;;;;;5114774;28;20331;-48
2022/09/21 07:20:20;;;;;;;;;;;18.60;88.20;;;;;;5111106;28;19939;-53
2022/09/21 07:22:46;;;;;;;;;;;18.60;88.20;;;;;;5108442;28;20304;-50
2022/09/21 07:25:11;;;;;;;;;;;18.60;88.20;;;;;;5110317;28;19923;-48
2022/09/21 07:27:37;;;;;;;;;;;18.60;88.10;;;;;;5109064;28;19951;-54
2022/09/21 07:30:03;;;;;;;;;;;18.60;88.10;;;;;;5103996;28;19918;-55
2022/09/21 07:32:30;;;;;;;;;;;18.60;88.20;;;;;;5102692;28;19984;-53
2022/09/21 07:34:56;;;;;;;;;;;18.70;88.70;;;;;;5101141;28;19916;-52
2022/09/21 07:37:25;;;;;;;;;;;18.70;88.20;;;;;;5110325;28;19961;-49
2022/09/21 07:39:51;;;;;;;;;;;18.70;88.20;;;;;;5115013;28;19922;-53
2022/09/21 07:42:19;;;;;;;;;;;18.70;88.10;;;;;;5090228;28;20274;-54
2022/09/21 07:44:45;;;;;;;;;;;18.70;88.20;;;;;;5114555;28;20262;-54
2022/09/21 07:47:12;;;;;;;;;;;18.70;88.10;;;;;;5108194;28;20287;-53
2022/09/21 07:49:38;;;;;;;;;;;18.70;88.10;;;;;;5073927;28;19923;-53
2022/09/21 07:52:03;;;;;;;;;;;18.70;88.10;;;;;;5094147;28;19912;-54
2022/09/21 07:54:29;;;;;;;;;;;18.70;88.10;;;;;;5077149;28;19958;-53
2022/09/21 07:59:38;;;;;;;;;;;18.70;87.90;;;;;;5110539;28;20324;-46
2022/09/21 08:02:04;;;;;;;;;;;18.70;87.80;;;;;;5106784;28;19911;-50
2022/09/21 08:04:29;;;;;;;;;;;18.70;87.90;;;;;;5107244;28;20313;-48
2022/09/21 08:06:55;;;;;;;;;;;18.70;87.80;;;;;;5105840;28;19918;-50
2022/09/21 08:09:20;;;;;;;;;;;18.70;87.80;;;;;;5114062;28;19907;-51
2022/09/21 08:11:46;;;;;;;;;;;18.70;87.80;;;;;;5111766;28;19961;-51
2022/09/21 08:14:18;;;;;;;;;;;18.70;87.90;;;;;;5105210;28;19916;-51
2022/09/21 08:16:44;;;;;;;;;;;18.70;87.90;;;;;;5094358;28;19923;-55
2022/09/21 08:19:10;;;;;;;;;;;18.70;87.90;;;;;;5109589;28;19912;-53
2022/09/21 08:21:35;;;;;;;;;;;18.70;87.90;;;;;;5110568;28;19919;-54
2022/09/21 08:24:01;;;;;;;;;;;18.70;88.00;;;;;;5110098;28;19981;-52
2022/09/21 08:26:26;;;;;;;;;;;18.70;88.00;;;;;;5111734;28;20002;-51
2022/09/21 08:28:53;;;;;;;;;;;18.70;88.00;;;;;;5113733;28;19950;-47
2022/09/21 08:31:20;;;;;;;;;;;18.70;88.00;;;;;;5110264;28;19919;-52
2022/09/21 08:33:46;;;;;;;;;;;18.70;88.10;;;;;;5103092;28;19912;-50
2022/09/21 08:36:12;;;;;;;;;;;18.70;88.10;;;;;;5107377;28;19924;-47
2022/09/21 08:38:38;;;;;;;;;;;18.70;88.20;;;;;;5110994;28;19924;-48
2022/09/21 08:41:15;;;;;;;;;;;18.70;88.10;;;;;;5111654;28;20421;-49
2022/09/21 08:43:42;;;;;;;;;;;18.70;88.10;;;;;;5113857;28;20251;-50
2022/09/21 08:46:28;;;;;;;;;;;18.80;88.10;;;;;;5107260;28;19916;-47
2022/09/21 08:48:58;;;;;;;;;;;18.80;88.20;;;;;;5110522;28;19908;-48
2022/09/21 08:51:29;;;;;;;;;;;18.80;88.20;;;;;;5110015;28;20370;-46
2022/09/21 08:53:56;;;;;;;;;;;18.80;88.10;;;;;;5107033;28;19935;-49
2022/09/21 08:56:23;;;;;;;;;;;18.80;88.10;;;;;;5107894;28;20366;-47
2022/09/21 08:58:48;;;;;;;;;;;18.80;88.00;;;;;;5109485;28;19916;-55
2022/09/21 09:01:32;;;;;;;;;;;18.80;87.80;;;;;;5104622;28;20270;-52
2022/09/21 09:04:18;;;;;;;;;;;18.80;87.80;;;;;;5104356;28;19969;-52
2022/09/21 09:06:43;;;;;;;;;;;18.80;87.80;;;;;;5113967;28;19998;-47
2022/09/21 09:09:25;;;;;;;;;;;18.80;87.80;;;;;;5107744;28;20325;-50
2022/09/21 09:12:00;;;;;;;;;;;18.80;88.30;;;;;;5100692;28;19927;-48
2022/09/21 09:14:35;;;;;;;;;;;18.80;87.80;;;;;;5114150;28;20394;-48
2022/09/21 09:17:09;;;;;;;;;;;18.80;87.80;;;;;;5107685;28;20286;-48
2022/09/21 09:19:49;;;;;;;;;;;18.80;87.70;;;;;;5072697;28;19908;-47
2022/09/21 09:22:18;;;;;;;;;;;18.80;87.90;;;;;;5102315;28;19912;-47
2022/09/21 09:24:50;;;;;;;;;;;18.80;87.70;;;;;;5108963;28;19923;-51
2022/09/21 09:27:42;;;;;;;;;;;18.90;87.80;;;;;;5105025;28;19916;-55
2022/09/21 09:30:18;;;;;;;;;;;18.80;87.90;;;;;;5107620;28;19915;-58
2022/09/21 09:32:47;;;;;;;;;;;18.80;88.30;;;;;;5101037;28;19954;-53
2022/09/21 09:35:16;;;;;;;;;;;18.80;87.90;;;;;;5088422;28;19922;-53
2022/09/21 09:37:44;;;;;;;;;;;18.90;87.90;;;;;;5112221;28;19916;-51
2022/09/21 09:40:11;;;;;;;;;;;18.90;87.90;;;;;;5113888;28;19912;-52
2022/09/21 09:42:49;;;;;;;;;;;18.90;87.90;;;;;;5095469;28;19950;-53
2022/09/21 09:45:20;;;;;;;;;;;18.90;87.80;;;;;;5091630;28;19911;-50
2022/09/21 09:47:52;;;;;;;;;;;18.90;87.80;;;;;;5111215;28;19918;-53
2022/09/21 09:50:22;;;;;;;;;;;18.90;87.80;;;;;;5113145;28;19916;-51
2022/09/21 09:52:53;;;;;;;;;;;18.90;87.80;;;;;;5091591;28;20429;-51
2022/09/21 09:55:23;;;;;;;;;;;18.90;87.80;;;;;;5105499;28;19939;-52
2022/09/21 09:57:49;;;;;;;;;;;18.90;87.80;;;;;;5112321;28;19954;-52
2022/09/21 10:00:16;;;;;;;;;;;18.90;87.80;;;;;;5080776;28;19951;-58
2022/09/21 10:02:52;;;;;;;;;;;18.90;87.90;;;;;;5102307;28;19973;-54
2022/09/21 10:05:30;;;;;;;;;;;18.90;87.80;;;;;;5116491;28;20023;-55
2022/09/21 10:07:56;;;;;;;;;;;18.90;87.90;;;;;;5113715;28;20277;-54
2022/09/21 10:10:27;;;;;;;;;;;18.90;87.90;;;;;;5107939;28;19998;-50
2022/09/21 10:12:54;;;;;;;;;;;18.80;87.90;;;;;;5075633;28;19956;-49
2022/09/21 10:15:20;;;;;;;;;;;18.80;87.80;;;;;;5103978;28;19954;-53
2022/09/21 10:17:46;;;;;;;;;;;18.90;88.00;;;;;;5089398;28;19960;-50
2022/09/21 10:20:16;;;;;;;;;;;18.90;88.00;;;;;;5090547;28;19912;-52
2022/09/21 10:22:46;;;;;;;;;;;18.80;87.90;;;;;;5102472;28;20010;-51
2022/09/21 10:25:16;;;;;;;;;;;18.80;88.00;;;;;;5111217;28;19974;-49
2022/09/21 10:27:43;;;;;;;;;;;18.80;88.00;;;;;;5101023;28;20382;-53
2022/09/21 10:30:28;;;;;;;;;;;18.80;87.90;;;;;;5106794;28;19919;-51
2022/09/21 10:32:55;;;;;;;;;;;18.80;87.80;;;;;;5084689;28;19949;-53
2022/09/21 10:35:21;;;;;;;;;;;18.80;87.90;;;;;;5095805;28;19912;-54
2022/09/21 10:37:53;;;;;;;;;;;18.80;87.80;;;;;;5115481;28;19938;-52
2022/09/21 10:40:18;;;;;;;;;;;18.80;87.80;;;;;;5109730;28;19955;-50
2022/09/21 10:42:44;;;;;;;;;;;18.80;87.80;;;;;;5095792;28;19946;-53
2022/09/21 10:45:13;;;;;;;;;;;18.80;87.80;;;;;;5102315;28;19957;-52
2022/09/21 10:47:40;;;;;;;;;;;18.80;87.70;;;;;;5104606;28;19947;-54
2022/09/21 10:50:26;;;;;;;;;;;18.80;87.80;;;;;;5103277;28;19935;-52
2022/09/21 10:53:10;;;;;;;;;;;18.80;87.70;;;;;;5094444;28;19908;-50
2022/09/21 10:55:37;;;;;;;;;;;18.80;87.60;;;;;;5094961;28;19952;-48
2022/09/21 10:58:07;;;;;;;;;;;18.80;87.60;;;;;;5076960;28;19916;-50
2022/09/21 11:00:39;;;;;;;;;;;18.80;87.60;;;;;;5094832;28;20006;-50
2022/09/21 11:03:23;;;;;;;;;;;18.80;87.50;;;;;;5094721;28;20285;-50
2022/09/21 11:05:49;;;;;;;;;;;18.80;87.50;;;;;;5094711;28;19926;-49
2022/09/21 11:08:18;;;;;;;;;;;18.80;87.50;;;;;;5095111;28;19908;-49
2022/09/21 11:10:47;;;;;;;;;;;18.80;87.50;;;;;;5094732;28;19912;-51
2022/09/21 11:13:53;;;;;;;;;;;18.80;87.50;;;;;;5094437;28;20219;-49
2022/09/21 11:16:21;;;;;;;;;;;18.80;87.50;;;;;;5012546;28;19967;-48
2022/09/21 11:18:56;;;;;;;;;;;18.80;87.40;;;;;;5012305;28;19917;-52
2022/09/21 11:21:30;;;;;;;;;;;18.80;87.60;;;;;;5057694;28;19958;-49
2022/09/21 11:24:09;;;;;;;;;;;18.70;87.30;;;;;;5094784;28;19915;-52
2022/09/21 11:26:42;;;;;;;;;;;18.70;87.30;;;;;;5098859;28;19912;-54
2022/09/21 11:29:07;;;;;;;;;;;18.70;87.20;;;;;;5105792;28;19924;-63
2022/09/21 11:31:42;;;;;;;;;;;18.70;87.20;;;;;;5097969;28;19958;-53
2022/09/21 11:34:11;;;;;;;;;;;18.80;87.20;;;;;;5114686;28;19915;-49
2022/09/21 11:36:49;;;;;;;;;;;18.80;87.20;;;;;;5110218;28;19918;-49
2022/09/21 11:39:29;;;;;;;;;;;18.70;87.20;;;;;;5109291;28;20301;-53
2022/09/21 11:42:13;;;;;;;;;;;18.80;87.30;;;;;;5112957;28;19950;-48
2022/09/21 11:44:48;;;;;;;;;;;18.70;87.30;;;;;;5105648;28;19912;-56
2022/09/21 11:47:15;;;;;;;;;;;18.70;87.40;;;;;;5107283;28;19923;-49
2022/09/21 11:49:43;;;;;;;;;;;18.70;87.30;;;;;;5108958;28;19924;-53
2022/09/21 11:52:09;;;;;;;;;;;18.80;87.50;;;;;;5082573;28;20018;-52
2022/09/21 11:54:50;;;;;;;;;;;18.70;87.40;;;;;;5093835;28;19932;-50
2022/09/21 11:57:17;;;;;;;;;;;18.70;87.50;;;;;;5079507;28;19998;-48
2022/09/21 11:59:59;;;;;;;;;;;18.70;87.40;;;;;;5109872;28;19920;-49
2022/09/21 12:02:43;;;;;;;;;;;18.70;87.60;;;;;;5108218;28;19919;-47
2022/09/21 12:05:14;;;;;;;;;;;18.80;87.40;;;;;;5112329;28;19926;-49
2022/09/21 12:07:48;;;;;;;;;;;18.70;87.40;;;;;;5105285;28;19915;-52
2022/09/21 12:10:29;;;;;;;;;;;18.80;87.80;;;;;;5093159;28;19960;-48
2022/09/21 12:12:58;;;;;;;;;;;18.70;87.50;;;;;;5108073;28;19919;-50
2022/09/21 12:15:35;;;;;;;;;;;18.70;87.70;;;;;;5104498;28;19968;-54
2022/09/21 12:18:04;;;;;;;;;;;18.70;87.50;;;;;;5102935;28;19916;-49
2022/09/21 12:20:36;;;;;;;;;;;18.70;87.40;;;;;;5111203;28;19954;-54
2022/09/21 12:23:05;;;;;;;;;;;18.70;87.60;;;;;;5113243;28;19965;-53
2022/09/21 12:25:34;;;;;;;;;;;18.70;87.80;;;;;;5109731;28;19911;-53
2022/09/21 12:28:06;;;;;;;;;;;18.70;87.70;;;;;;5109189;28;19913;-49
2022/09/21 12:30:33;;;;;;;;;;;18.70;87.60;;;;;;5109233;28;19919;-48
2022/09/21 12:32:58;;;;;;;;;;;18.70;87.90;;;;;;5107574;28;19955;-50
2022/09/21 12:35:26;;;;;;;;;;;18.70;87.90;;;;;;5103838;28;19951;-49
2022/09/21 12:38:27;;;;;;;;;;;18.70;87.70;;;;;;5101743;28;19923;-50
2022/09/21 12:41:20;;;;;;;;;;;18.60;87.60;;;;;;5007254;28;19914;-49
2022/09/21 12:44:04;;;;;;;;;;;18.70;87.80;;;;;;5073476;28;19911;-50
2022/09/21 12:46:32;;;;;;;;;;;18.60;87.80;;;;;;5107274;28;20342;-49
2022/09/21 12:48:59;;;;;;;;;;;18.70;87.70;;;;;;5111331;28;20414;-50
2022/09/21 12:51:34;;;;;;;;;;;18.70;88.00;;;;;;5113766;28;19914;-48
2022/09/21 12:54:05;;;;;;;;;;;18.60;87.80;;;;;;5111447;28;19912;-51
2022/09/21 12:56:38;;;;;;;;;;;18.70;88.10;;;;;;5109806;28;20266;-49
2022/09/21 12:59:33;;;;;;;;;;;18.60;88.00;;;;;;5076629;28;20367;-49
2022/09/21 13:02:19;;;;;;;;;;;18.60;88.10;;;;;;5074428;28;20401;-48
2022/09/21 13:05:03;;;;;;;;;;;18.70;88.10;;;;;;5091081;28;20377;-48
2022/09/21 13:07:32;;;;;;;;;;;18.70;88.10;;;;;;5113247;28;19920;-47
2022/09/21 13:09:59;;;;;;;;;;;18.70;88.00;;;;;;5108788;28;19994;-50
2022/09/21 13:12:27;;;;;;;;;;;18.60;87.80;;;;;;5106295;28;20327;-51
2022/09/21 13:15:00;;;;;;;;;;;18.60;87.80;;;;;;5107870;28;20339;-46
2022/09/21 13:17:28;;;;;;;;;;;18.60;88.00;;;;;;5114378;28;19967;-47
2022/09/21 13:20:05;;;;;;;;;;;18.60;88.20;;;;;;5114839;28;19912;-45
2022/09/21 13:22:34;;;;;;;;;;;18.60;88.10;;;;;;5112004;28;19911;-56
2022/09/21 13:25:16;;;;;;;;;;;18.60;88.20;;;;;;5115151;28;19911;-46
2022/09/21 13:28:08;;;;;;;;;;;18.60;88.00;;;;;;5113499;28;19999;-52
2022/09/21 13:30:33;;;;;;;;;;;18.60;88.00;;;;;;5095034;28;19915;-49
2022/09/21 13:33:00;;;;;;;;;;;18.60;88.20;;;;;;5110771;28;19920;-52
2022/09/21 13:35:44;;;;;;;;;;;18.60;88.30;;;;;;5112682;28;19927;-51
2022/09/21 13:38:23;;;;;;;;;;;18.60;88.30;;;;;;5114834;28;19915;-46
2022/09/21 13:40:54;;;;;;;;;;;18.60;88.30;;;;;;5093437;28;20297;-46
2022/09/21 13:43:21;;;;;;;;;;;18.60;88.20;;;;;;5111985;28;19912;-50
2022/09/21 13:45:49;;;;;;;;;;;18.60;88.20;;;;;;5116828;28;19908;-51
2022/09/21 13:48:24;;;;;;;;;;;18.60;88.20;;;;;;5092986;28;19912;-50
2022/09/21 13:50:50;;;;;;;;;;;18.70;88.10;;;;;;5112201;28;20011;-46
2022/09/21 13:53:18;;;;;;;;;;;18.70;88.20;;;;;;5114223;28;19943;-49
2022/09/21 13:55:49;;;;;;;;;;;18.70;88.20;;;;;;5111627;28;20306;-47
2022/09/21 13:58:18;;;;;;;;;;;18.70;88.00;;;;;;5111653;28;20186;-53
2022/09/21 14:00:57;;;;;;;;;;;18.70;88.10;;;;;;5109481;28;19954;-47
2022/09/21 14:03:25;;;;;;;;;;;18.70;88.00;;;;;;5103540;28;19918;-48
2022/09/21 14:05:54;;;;;;;;;;;18.70;87.90;;;;;;5116570;28;20365;-50
2022/09/21 14:08:31;;;;;;;;;;;18.70;88.00;;;;;;5085376;28;19999;-54
2022/09/21 14:11:06;;;;;;;;;;;18.70;88.10;;;;;;5098302;28;19980;-47
2022/09/21 14:13:32;;;;;;;;;;;18.70;87.90;;;;;;5112243;28;20259;-47
2022/09/21 14:16:16;;;;;;;;;;;18.70;88.00;;;;;;5105786;28;19926;-50
2022/09/21 14:18:45;;;;;;;;;;;18.70;88.20;;;;;;5115862;28;19912;-50
2022/09/21 14:21:15;;;;;;;;;;;18.70;88.20;;;;;;5111231;28;20219;-48
2022/09/21 14:24:02;;;;;;;;;;;18.70;88.10;;;;;;5107356;28;19912;-48
2022/09/21 14:26:32;;;;;;;;;;;18.70;88.10;;;;;;5107397;28;19915;-48
2022/09/21 14:29:04;;;;;;;;;;;18.70;88.20;;;;;;5110272;28;20360;-52
2022/09/21 14:31:32;;;;;;;;;;;18.70;88.10;;;;;;5106933;28;19989;-51
2022/09/21 14:34:00;;;;;;;;;;;18.70;88.20;;;;;;5115445;28;20286;-49
2022/09/21 14:36:33;;;;;;;;;;;18.70;88.20;;;;;;5106717;28;19949;-46